sensor_id;sensor_type;location;lat;lon;timestamp;pressure;altitude;pressure_sealevel;temperature
19040;BMP180;9652;49.014;12.052;2023-07-09T00:00:46;98241.00;;;22.30
19040;BMP180;9652;49.014;12.052;2023-07-09T00:03:15;98238.00;;;22.30
19040;BMP180;9652;49.014;12.052;2023-07-09T00:05:43;98246.00;;;22.30
19040;BMP180;9652;49.014;12.052;2023-07-09T00:08:24;98249.00;;;22.20
19040;BMP180;9652;49.014;12.052;2023-07-09T00:10:52;98246.00;;;22.20
19040;BMP180;9652;49.014;12.052;2023-07-09T00:13:19;98258.00;;;22.10
19040;BMP180;9652;49.014;12.052;2023-07-09T00:15:48;98248.00;;;22.00
19040;BMP180;9652;49.014;12.052;2023-07-09T00:18:16;98231.00;;;22.00
19040;BMP180;9652;49.014;12.052;2023-07-09T00:20:43;98255.00;;;21.90
19040;BMP180;9652;49.014;12.052;2023-07-09T00:23:10;98255.00;;;21.90
19040;BMP180;9652;49.014;12.052;2023-07-09T00:25:39;98248.00;;;21.80
19040;BMP180;9652;49.014;12.052;2023-07-09T00:28:14;98236.00;;;21.80
19040;BMP180;9652;49.014;12.052;2023-07-09T00:30:42;98254.00;;;21.80
19040;BMP180;9652;49.014;12.052;2023-07-09T00:33:14;98262.00;;;21.80
19040;BMP180;9652;49.014;12.052;2023-07-09T00:35:42;98251.00;;;21.80
19040;BMP180;9652;49.014;12.052;2023-07-09T00:38:19;98254.00;;;21.70
19040;BMP180;9652;49.014;12.052;2023-07-09T00:40:59;98247.00;;;21.70
19040;BMP180;9652;49.014;12.052;2023-07-09T00:43:31;98266.00;;;21.70
19040;BMP180;9652;49.014;12.052;2023-07-09T00:49:36;98258.00;;;21.60
19040;BMP180;9652;49.014;12.052;2023-07-09T00:52:29;98255.00;;;21.50
19040;BMP180;9652;49.014;12.052;2023-07-09T00:55:05;98258.00;;;21.40
19040;BMP180;9652;49.014;12.052;2023-07-09T00:57:36;98250.00;;;21.40
19040;BMP180;9652;49.014;12.052;2023-07-09T01:00:09;98271.00;;;21.40
19040;BMP180;9652;49.014;12.052;2023-07-09T01:02:44;98279.00;;;21.40
19040;BMP180;9652;49.014;12.052;2023-07-09T01:05:16;98271.00;;;21.30
19040;BMP180;9652;49.014;12.052;2023-07-09T01:07:46;98270.00;;;21.30
19040;BMP180;9652;49.014;12.052;2023-07-09T01:10:15;98279.00;;;21.30
19040;BMP180;9652;49.014;12.052;2023-07-09T01:12:46;98275.00;;;21.30
19040;BMP180;9652;49.014;12.052;2023-07-09T01:15:14;98266.00;;;21.20
19040;BMP180;9652;49.014;12.052;2023-07-09T01:17:42;98261.00;;;21.20
19040;BMP180;9652;49.014;12.052;2023-07-09T01:20:17;98237.00;;;21.10
19040;BMP180;9652;49.014;12.052;2023-07-09T01:22:51;98245.00;;;21.10
19040;BMP180;9652;49.014;12.052;2023-07-09T01:25:26;98270.00;;;21.10
19040;BMP180;9652;49.014;12.052;2023-07-09T01:27:54;98259.00;;;21.00
19040;BMP180;9652;49.014;12.052;2023-07-09T01:30:30;98259.00;;;21.00
19040;BMP180;9652;49.014;12.052;2023-07-09T01:32:59;98284.00;;;21.00
19040;BMP180;9652;49.014;12.052;2023-07-09T01:35:29;98291.00;;;20.60
19040;BMP180;9652;49.014;12.052;2023-07-09T01:37:59;98289.00;;;20.90
19040;BMP180;9652;49.014;12.052;2023-07-09T01:40:28;98286.00;;;20.90
19040;BMP180;9652;49.014;12.052;2023-07-09T01:42:57;98258.00;;;20.90
19040;BMP180;9652;49.014;12.052;2023-07-09T01:45:27;98283.00;;;20.90
19040;BMP180;9652;49.014;12.052;2023-07-09T01:47:55;98285.00;;;20.90
19040;BMP180;9652;49.014;12.052;2023-07-09T01:50:22;98281.00;;;20.90
19040;BMP180;9652;49.014;12.052;2023-07-09T01:52:50;98287.00;;;20.80
19040;BMP180;9652;49.014;12.052;2023-07-09T01:55:19;98289.00;;;20.80
19040;BMP180;9652;49.014;12.052;2023-07-09T01:57:46;98283.00;;;20.80
19040;BMP180;9652;49.014;12.052;2023-07-09T02:00:16;98259.00;;;20.70
19040;BMP180;9652;49.014;12.052;2023-07-09T02:02:46;98274.00;;;20.70
19040;BMP180;9652;49.014;12.052;2023-07-09T02:05:16;98268.00;;;20.70
19040;BMP180;9652;49.014;12.052;2023-07-09T02:07:45;98284.00;;;20.60
19040;BMP180;9652;49.014;12.052;2023-07-09T02:10:14;98287.00;;;20.60
19040;BMP180;9652;49.014;12.052;2023-07-09T02:12:43;98262.00;;;20.60
19040;BMP180;9652;49.014;12.052;2023-07-09T02:15:11;98265.00;;;20.60
19040;BMP180;9652;49.014;12.052;2023-07-09T02:17:38;98278.00;;;20.50
19040;BMP180;9652;49.014;12.052;2023-07-09T02:20:07;98294.00;;;20.50
19040;BMP180;9652;49.014;12.052;2023-07-09T02:22:36;98287.00;;;20.20
19040;BMP180;9652;49.014;12.052;2023-07-09T02:25:04;98296.00;;;20.40
19040;BMP180;9652;49.014;12.052;2023-07-09T02:27:33;98299.00;;;20.40
19040;BMP180;9652;49.014;12.052;2023-07-09T02:30:02;98287.00;;;20.40
19040;BMP180;9652;49.014;12.052;2023-07-09T02:32:29;98283.00;;;20.40
19040;BMP180;9652;49.014;12.052;2023-07-09T02:34:56;98300.00;;;20.40
19040;BMP180;9652;49.014;12.052;2023-07-09T02:37:26;98269.00;;;20.30
19040;BMP180;9652;49.014;12.052;2023-07-09T02:39:53;98303.00;;;20.30
19040;BMP180;9652;49.014;12.052;2023-07-09T02:42:22;98305.00;;;20.30
19040;BMP180;9652;49.014;12.052;2023-07-09T02:44:50;98308.00;;;20.20
19040;BMP180;9652;49.014;12.052;2023-07-09T02:47:19;98292.00;;;20.20
19040;BMP180;9652;49.014;12.052;2023-07-09T02:49:47;98317.00;;;20.20
19040;BMP180;9652;49.014;12.052;2023-07-09T02:52:14;98308.00;;;20.10
19040;BMP180;9652;49.014;12.052;2023-07-09T02:54:41;98310.00;;;20.10
19040;BMP180;9652;49.014;12.052;2023-07-09T02:57:09;98296.00;;;20.00
19040;BMP180;9652;49.014;12.052;2023-07-09T02:59:36;98323.00;;;20.00
19040;BMP180;9652;49.014;12.052;2023-07-09T03:02:04;98315.00;;;19.90
19040;BMP180;9652;49.014;12.052;2023-07-09T03:04:33;98322.00;;;19.90
19040;BMP180;9652;49.014;12.052;2023-07-09T03:07:00;98324.00;;;19.90
19040;BMP180;9652;49.014;12.052;2023-07-09T03:09:28;98322.00;;;19.90
19040;BMP180;9652;49.014;12.052;2023-07-09T03:11:55;98325.00;;;19.90
19040;BMP180;9652;49.014;12.052;2023-07-09T03:14:23;98307.00;;;19.90
19040;BMP180;9652;49.014;12.052;2023-07-09T03:16:50;98339.00;;;19.80
19040;BMP180;9652;49.014;12.052;2023-07-09T03:19:18;98280.00;;;19.80
19040;BMP180;9652;49.014;12.052;2023-07-09T03:21:46;98332.00;;;19.80
19040;BMP180;9652;49.014;12.052;2023-07-09T03:24:13;98334.00;;;19.80
19040;BMP180;9652;49.014;12.052;2023-07-09T03:26:44;98335.00;;;19.80
19040;BMP180;9652;49.014;12.052;2023-07-09T03:29:12;98321.00;;;19.70
19040;BMP180;9652;49.014;12.052;2023-07-09T03:31:39;98331.00;;;19.70
19040;BMP180;9652;49.014;12.052;2023-07-09T03:34:06;98313.00;;;19.70
19040;BMP180;9652;49.014;12.052;2023-07-09T03:36:33;98334.00;;;19.70
19040;BMP180;9652;49.014;12.052;2023-07-09T03:39:04;98335.00;;;19.70
19040;BMP180;9652;49.014;12.052;2023-07-09T03:41:31;98182.00;;;19.70
19040;BMP180;9652;49.014;12.052;2023-07-09T03:43:58;98343.00;;;19.70
19040;BMP180;9652;49.014;12.052;2023-07-09T03:46:25;98341.00;;;19.60
19040;BMP180;9652;49.014;12.052;2023-07-09T03:48:53;98343.00;;;19.60
19040;BMP180;9652;49.014;12.052;2023-07-09T03:51:20;98339.00;;;19.70
19040;BMP180;9652;49.014;12.052;2023-07-09T03:53:47;98335.00;;;19.70
19040;BMP180;9652;49.014;12.052;2023-07-09T03:56:15;98356.00;;;19.70
19040;BMP180;9652;49.014;12.052;2023-07-09T03:58:42;98343.00;;;19.70
19040;BMP180;9652;49.014;12.052;2023-07-09T04:01:09;98335.00;;;19.70
19040;BMP180;9652;49.014;12.052;2023-07-09T04:03:36;98361.00;;;19.70
19040;BMP180;9652;49.014;12.052;2023-07-09T04:06:03;98357.00;;;19.70
19040;BMP180;9652;49.014;12.052;2023-07-09T04:08:30;98345.00;;;19.70
19040;BMP180;9652;49.014;12.052;2023-07-09T04:11:01;98350.00;;;19.70
19040;BMP180;9652;49.014;12.052;2023-07-09T04:13:30;98350.00;;;19.70
19040;BMP180;9652;49.014;12.052;2023-07-09T04:15:57;98335.00;;;19.80
19040;BMP180;9652;49.014;12.052;2023-07-09T04:18:24;98369.00;;;19.80
19040;BMP180;9652;49.014;12.052;2023-07-09T04:20:52;98355.00;;;19.80
19040;BMP180;9652;49.014;12.052;2023-07-09T04:23:20;98361.00;;;19.80
19040;BMP180;9652;49.014;12.052;2023-07-09T04:25:47;98333.00;;;19.90
19040;BMP180;9652;49.014;12.052;2023-07-09T04:28:14;98331.00;;;19.90
19040;BMP180;9652;49.014;12.052;2023-07-09T04:30:48;98340.00;;;19.90
19040;BMP180;9652;49.014;12.052;2023-07-09T04:33:16;98364.00;;;20.00
19040;BMP180;9652;49.014;12.052;2023-07-09T04:35:44;98327.00;;;19.90
19040;BMP180;9652;49.014;12.052;2023-07-09T04:38:12;98314.00;;;20.00
19040;BMP180;9652;49.014;12.052;2023-07-09T04:40:39;98353.00;;;20.10
19040;BMP180;9652;49.014;12.052;2023-07-09T04:43:06;98360.00;;;20.10
19040;BMP180;9652;49.014;12.052;2023-07-09T04:45:34;98365.00;;;20.10
19040;BMP180;9652;49.014;12.052;2023-07-09T04:48:03;98370.00;;;20.20
19040;BMP180;9652;49.014;12.052;2023-07-09T04:50:30;98366.00;;;20.20
19040;BMP180;9652;49.014;12.052;2023-07-09T04:52:58;98341.00;;;20.20
19040;BMP180;9652;49.014;12.052;2023-07-09T04:55:25;98358.00;;;20.20
19040;BMP180;9652;49.014;12.052;2023-07-09T04:57:53;98366.00;;;20.30
19040;BMP180;9652;49.014;12.052;2023-07-09T05:00:20;98312.00;;;20.30
19040;BMP180;9652;49.014;12.052;2023-07-09T05:02:48;98367.00;;;20.30
19040;BMP180;9652;49.014;12.052;2023-07-09T05:05:17;98325.00;;;20.30
19040;BMP180;9652;49.014;12.052;2023-07-09T05:07:44;98366.00;;;20.40
19040;BMP180;9652;49.014;12.052;2023-07-09T05:10:13;98337.00;;;20.40
19040;BMP180;9652;49.014;12.052;2023-07-09T05:12:49;98352.00;;;19.70
19040;BMP180;9652;49.014;12.052;2023-07-09T05:15:17;98348.00;;;20.60
19040;BMP180;9652;49.014;12.052;2023-07-09T05:17:44;98369.00;;;20.60
19040;BMP180;9652;49.014;12.052;2023-07-09T05:20:13;98366.00;;;20.30
19040;BMP180;9652;49.014;12.052;2023-07-09T05:22:41;98362.00;;;20.80
19040;BMP180;9652;49.014;12.052;2023-07-09T05:25:09;98371.00;;;20.80
19040;BMP180;9652;49.014;12.052;2023-07-09T05:27:36;98363.00;;;20.90
19040;BMP180;9652;49.014;12.052;2023-07-09T05:30:05;98331.00;;;21.00
19040;BMP180;9652;49.014;12.052;2023-07-09T05:32:32;98368.00;;;21.00
19040;BMP180;9652;49.014;12.052;2023-07-09T05:35:01;98358.00;;;21.10
19040;BMP180;9652;49.014;12.052;2023-07-09T05:37:28;98360.00;;;21.20
19040;BMP180;9652;49.014;12.052;2023-07-09T05:39:57;98358.00;;;21.30
19040;BMP180;9652;49.014;12.052;2023-07-09T05:42:24;98325.00;;;21.30
19040;BMP180;9652;49.014;12.052;2023-07-09T05:44:55;98349.00;;;21.40
19040;BMP180;9652;49.014;12.052;2023-07-09T05:47:22;98384.00;;;21.50
19040;BMP180;9652;49.014;12.052;2023-07-09T05:49:49;98384.00;;;21.50
19040;BMP180;9652;49.014;12.052;2023-07-09T05:52:17;98390.00;;;21.60
19040;BMP180;9652;49.014;12.052;2023-07-09T05:54:44;98382.00;;;21.70
19040;BMP180;9652;49.014;12.052;2023-07-09T05:57:13;98387.00;;;21.70
19040;BMP180;9652;49.014;12.052;2023-07-09T05:59:40;98394.00;;;21.80
19040;BMP180;9652;49.014;12.052;2023-07-09T06:02:11;98389.00;;;21.90
19040;BMP180;9652;49.014;12.052;2023-07-09T06:04:38;98381.00;;;22.00
19040;BMP180;9652;49.014;12.052;2023-07-09T06:07:05;98402.00;;;22.10
19040;BMP180;9652;49.014;12.052;2023-07-09T06:09:33;98389.00;;;22.20
19040;BMP180;9652;49.014;12.052;2023-07-09T06:12:00;98389.00;;;22.30
19040;BMP180;9652;49.014;12.052;2023-07-09T06:14:28;98387.00;;;21.60
19040;BMP180;9652;49.014;12.052;2023-07-09T06:16:56;98234.00;;;22.50
19040;BMP180;9652;49.014;12.052;2023-07-09T06:19:23;98380.00;;;22.60
19040;BMP180;9652;49.014;12.052;2023-07-09T06:21:50;98343.00;;;22.50
19040;BMP180;9652;49.014;12.052;2023-07-09T06:24:17;98386.00;;;22.80
19040;BMP180;9652;49.014;12.052;2023-07-09T06:26:44;98372.00;;;22.90
19040;BMP180;9652;49.014;12.052;2023-07-09T06:29:11;98382.00;;;23.00
19040;BMP180;9652;49.014;12.052;2023-07-09T06:31:40;98381.00;;;23.10
19040;BMP180;9652;49.014;12.052;2023-07-09T06:34:09;98375.00;;;23.20
19040;BMP180;9652;49.014;12.052;2023-07-09T06:36:36;98411.00;;;23.30
19040;BMP180;9652;49.014;12.052;2023-07-09T06:39:03;98410.00;;;23.40
19040;BMP180;9652;49.014;12.052;2023-07-09T06:41:31;98393.00;;;23.50
19040;BMP180;9652;49.014;12.052;2023-07-09T06:44:05;98394.00;;;23.70
19040;BMP180;9652;49.014;12.052;2023-07-09T06:46:33;98389.00;;;23.80
19040;BMP180;9652;49.014;12.052;2023-07-09T06:49:03;98404.00;;;23.50
19040;BMP180;9652;49.014;12.052;2023-07-09T06:51:31;98380.00;;;24.00
19040;BMP180;9652;49.014;12.052;2023-07-09T06:53:59;98405.00;;;24.20
19040;BMP180;9652;49.014;12.052;2023-07-09T06:56:26;98379.00;;;24.30
19040;BMP180;9652;49.014;12.052;2023-07-09T06:58:53;98406.00;;;24.40
19040;BMP180;9652;49.014;12.052;2023-07-09T07:01:20;98394.00;;;24.50
19040;BMP180;9652;49.014;12.052;2023-07-09T07:03:47;98403.00;;;24.60
19040;BMP180;9652;49.014;12.052;2023-07-09T07:06:16;98413.00;;;24.70
19040;BMP180;9652;49.014;12.052;2023-07-09T07:08:43;98386.00;;;24.80
19040;BMP180;9652;49.014;12.052;2023-07-09T07:11:10;98371.00;;;24.90
19040;BMP180;9652;49.014;12.052;2023-07-09T07:13:39;98380.00;;;25.00
19040;BMP180;9652;49.014;12.052;2023-07-09T07:16:09;98394.00;;;25.10
19040;BMP180;9652;49.014;12.052;2023-07-09T07:18:37;98401.00;;;25.20
19040;BMP180;9652;49.014;12.052;2023-07-09T07:21:05;98394.00;;;25.30
19040;BMP180;9652;49.014;12.052;2023-07-09T07:23:34;98398.00;;;25.40
19040;BMP180;9652;49.014;12.052;2023-07-09T07:26:01;98395.00;;;25.50
19040;BMP180;9652;49.014;12.052;2023-07-09T07:28:30;98381.00;;;25.40
19040;BMP180;9652;49.014;12.052;2023-07-09T07:31:02;98381.00;;;25.60
19040;BMP180;9652;49.014;12.052;2023-07-09T07:33:29;98393.00;;;25.80
19040;BMP180;9652;49.014;12.052;2023-07-09T07:35:56;98388.00;;;25.50
19040;BMP180;9652;49.014;12.052;2023-07-09T07:38:24;98385.00;;;25.90
19040;BMP180;9652;49.014;12.052;2023-07-09T07:40:53;98393.00;;;26.00
19040;BMP180;9652;49.014;12.052;2023-07-09T07:43:20;98392.00;;;26.10
19040;BMP180;9652;49.014;12.052;2023-07-09T07:45:48;98393.00;;;26.20
19040;BMP180;9652;49.014;12.052;2023-07-09T07:48:15;98395.00;;;26.30
19040;BMP180;9652;49.014;12.052;2023-07-09T07:50:42;98373.00;;;26.40
19040;BMP180;9652;49.014;12.052;2023-07-09T07:53:12;98396.00;;;26.50
19040;BMP180;9652;49.014;12.052;2023-07-09T07:55:39;98401.00;;;26.50
19040;BMP180;9652;49.014;12.052;2023-07-09T07:58:11;98393.00;;;26.60
19040;BMP180;9652;49.014;12.052;2023-07-09T08:00:39;98386.00;;;26.60
19040;BMP180;9652;49.014;12.052;2023-07-09T08:03:07;98372.00;;;26.80
19040;BMP180;9652;49.014;12.052;2023-07-09T08:05:34;98376.00;;;26.90
19040;BMP180;9652;49.014;12.052;2023-07-09T08:08:01;98382.00;;;27.00
19040;BMP180;9652;49.014;12.052;2023-07-09T08:10:28;98398.00;;;27.00
19040;BMP180;9652;49.014;12.052;2023-07-09T08:12:56;98375.00;;;27.10
19040;BMP180;9652;49.014;12.052;2023-07-09T08:15:25;98389.00;;;27.20
19040;BMP180;9652;49.014;12.052;2023-07-09T08:17:52;98395.00;;;27.30
19040;BMP180;9652;49.014;12.052;2023-07-09T08:20:20;98387.00;;;27.40
19040;BMP180;9652;49.014;12.052;2023-07-09T08:22:47;98372.00;;;27.50
19040;BMP180;9652;49.014;12.052;2023-07-09T08:25:14;98376.00;;;27.60
19040;BMP180;9652;49.014;12.052;2023-07-09T08:27:41;98379.00;;;27.70
19040;BMP180;9652;49.014;12.052;2023-07-09T08:30:10;98352.00;;;27.80
19040;BMP180;9652;49.014;12.052;2023-07-09T08:32:38;98376.00;;;27.90
19040;BMP180;9652;49.014;12.052;2023-07-09T08:35:06;98374.00;;;28.00
19040;BMP180;9652;49.014;12.052;2023-07-09T08:37:36;98374.00;;;28.00
19040;BMP180;9652;49.014;12.052;2023-07-09T08:40:05;98370.00;;;28.10
19040;BMP180;9652;49.014;12.052;2023-07-09T08:42:43;98371.00;;;28.20
19040;BMP180;9652;49.014;12.052;2023-07-09T08:45:27;98374.00;;;28.40
19040;BMP180;9652;49.014;12.052;2023-07-09T08:48:05;98366.00;;;28.50
19040;BMP180;9652;49.014;12.052;2023-07-09T08:50:39;98369.00;;;28.60
19040;BMP180;9652;49.014;12.052;2023-07-09T08:53:16;98376.00;;;28.70
19040;BMP180;9652;49.014;12.052;2023-07-09T08:55:48;98380.00;;;28.70
19040;BMP180;9652;49.014;12.052;2023-07-09T08:58:23;98376.00;;;28.80
19040;BMP180;9652;49.014;12.052;2023-07-09T09:00:55;98313.00;;;28.90
19040;BMP180;9652;49.014;12.052;2023-07-09T09:03:38;98380.00;;;28.70
19040;BMP180;9652;49.014;12.052;2023-07-09T09:06:14;98371.00;;;29.10
19040;BMP180;9652;49.014;12.052;2023-07-09T09:08:55;98378.00;;;29.20
19040;BMP180;9652;49.014;12.052;2023-07-09T09:11:38;98373.00;;;29.30
19040;BMP180;9652;49.014;12.052;2023-07-09T09:14:27;98377.00;;;29.40
19040;BMP180;9652;49.014;12.052;2023-07-09T09:16:57;98372.00;;;29.50
19040;BMP180;9652;49.014;12.052;2023-07-09T09:19:31;98368.00;;;29.60
19040;BMP180;9652;49.014;12.052;2023-07-09T09:22:09;98381.00;;;29.80
19040;BMP180;9652;49.014;12.052;2023-07-09T09:24:50;98375.00;;;29.90
19040;BMP180;9652;49.014;12.052;2023-07-09T09:27:21;98360.00;;;30.00
19040;BMP180;9652;49.014;12.052;2023-07-09T09:29:48;98369.00;;;29.80
19040;BMP180;9652;49.014;12.052;2023-07-09T09:32:22;98363.00;;;30.20
19040;BMP180;9652;49.014;12.052;2023-07-09T09:34:54;98367.00;;;30.30
19040;BMP180;9652;49.014;12.052;2023-07-09T09:37:28;98371.00;;;30.40
19040;BMP180;9652;49.014;12.052;2023-07-09T09:39:56;98361.00;;;30.50
19040;BMP180;9652;49.014;12.052;2023-07-09T09:42:25;98363.00;;;30.60
19040;BMP180;9652;49.014;12.052;2023-07-09T09:44:54;98380.00;;;30.70
19040;BMP180;9652;49.014;12.052;2023-07-09T09:47:26;98370.00;;;30.80
19040;BMP180;9652;49.014;12.052;2023-07-09T09:49:54;98359.00;;;30.80
19040;BMP180;9652;49.014;12.052;2023-07-09T09:52:29;98372.00;;;30.90
19040;BMP180;9652;49.014;12.052;2023-07-09T09:55:10;98377.00;;;31.00
19040;BMP180;9652;49.014;12.052;2023-07-09T09:57:38;98378.00;;;31.20
19040;BMP180;9652;49.014;12.052;2023-07-09T10:00:13;98368.00;;;31.30
19040;BMP180;9652;49.014;12.052;2023-07-09T10:02:42;98387.00;;;31.40
19040;BMP180;9652;49.014;12.052;2023-07-09T10:05:14;98378.00;;;31.40
19040;BMP180;9652;49.014;12.052;2023-07-09T10:07:59;98368.00;;;31.50
19040;BMP180;9652;49.014;12.052;2023-07-09T10:10:30;98372.00;;;31.60
19040;BMP180;9652;49.014;12.052;2023-07-09T10:13:07;98366.00;;;31.70
19040;BMP180;9652;49.014;12.052;2023-07-09T10:15:43;98376.00;;;31.80
19040;BMP180;9652;49.014;12.052;2023-07-09T10:18:41;98367.00;;;31.90
19040;BMP180;9652;49.014;12.052;2023-07-09T10:21:17;98365.00;;;32.00
19040;BMP180;9652;49.014;12.052;2023-07-09T10:23:59;98367.00;;;32.10
19040;BMP180;9652;49.014;12.052;2023-07-09T10:26:40;98373.00;;;32.20
19040;BMP180;9652;49.014;12.052;2023-07-09T10:29:40;98367.00;;;32.30
19040;BMP180;9652;49.014;12.052;2023-07-09T10:32:20;98373.00;;;32.40
19040;BMP180;9652;49.014;12.052;2023-07-09T10:34:59;98361.00;;;32.50
19040;BMP180;9652;49.014;12.052;2023-07-09T10:37:55;98348.00;;;32.60
19040;BMP180;9652;49.014;12.052;2023-07-09T10:40:33;98351.00;;;32.70
19040;BMP180;9652;49.014;12.052;2023-07-09T10:43:05;98346.00;;;32.70
19040;BMP180;9652;49.014;12.052;2023-07-09T10:45:40;98354.00;;;32.80
19040;BMP180;9652;49.014;12.052;2023-07-09T10:48:15;98354.00;;;32.90
19040;BMP180;9652;49.014;12.052;2023-07-09T10:50:49;98353.00;;;32.90
19040;BMP180;9652;49.014;12.052;2023-07-09T10:53:29;98359.00;;;33.00
19040;BMP180;9652;49.014;12.052;2023-07-09T10:56:04;98346.00;;;33.00
19040;BMP180;9652;49.014;12.052;2023-07-09T10:58:39;98355.00;;;33.10
19040;BMP180;9652;49.014;12.052;2023-07-09T11:01:12;98347.00;;;33.20
19040;BMP180;9652;49.014;12.052;2023-07-09T11:03:47;98352.00;;;33.20
19040;BMP180;9652;49.014;12.052;2023-07-09T11:06:20;98356.00;;;32.90
19040;BMP180;9652;49.014;12.052;2023-07-09T11:08:55;98345.00;;;33.30
19040;BMP180;9652;49.014;12.052;2023-07-09T11:11:33;98313.00;;;33.40
19040;BMP180;9652;49.014;12.052;2023-07-09T11:14:06;98339.00;;;33.40
19040;BMP180;9652;49.014;12.052;2023-07-09T11:16:41;98329.00;;;33.50
19040;BMP180;9652;49.014;12.052;2023-07-09T11:19:16;98348.00;;;33.50
19040;BMP180;9652;49.014;12.052;2023-07-09T11:22:02;98334.00;;;33.50
19040;BMP180;9652;49.014;12.052;2023-07-09T11:24:35;98341.00;;;33.60
19040;BMP180;9652;49.014;12.052;2023-07-09T11:27:17;98334.00;;;33.70
19040;BMP180;9652;49.014;12.052;2023-07-09T11:29:56;98326.00;;;33.50
19040;BMP180;9652;49.014;12.052;2023-07-09T11:32:25;98335.00;;;33.80
19040;BMP180;9652;49.014;12.052;2023-07-09T11:34:53;98339.00;;;33.80
19040;BMP180;9652;49.014;12.052;2023-07-09T11:37:25;98359.00;;;33.80
19040;BMP180;9652;49.014;12.052;2023-07-09T11:40:04;98321.00;;;33.90
19040;BMP180;9652;49.014;12.052;2023-07-09T11:42:50;98331.00;;;34.00
19040;BMP180;9652;49.014;12.052;2023-07-09T11:45:24;98327.00;;;34.10
19040;BMP180;9652;49.014;12.052;2023-07-09T11:47:59;98329.00;;;34.10
19040;BMP180;9652;49.014;12.052;2023-07-09T11:50:35;98323.00;;;34.20
19040;BMP180;9652;49.014;12.052;2023-07-09T11:53:18;98283.00;;;34.20
19040;BMP180;9652;49.014;12.052;2023-07-09T11:55:50;98313.00;;;34.30
19040;BMP180;9652;49.014;12.052;2023-07-09T11:58:19;98282.00;;;34.30
19040;BMP180;9652;49.014;12.052;2023-07-09T12:00:49;98326.00;;;34.30
19040;BMP180;9652;49.014;12.052;2023-07-09T12:03:20;98262.00;;;34.30
19040;BMP180;9652;49.014;12.052;2023-07-09T12:05:51;98297.00;;;34.20
19040;BMP180;9652;49.014;12.052;2023-07-09T12:08:25;98311.00;;;34.40
19040;BMP180;9652;49.014;12.052;2023-07-09T12:10:55;98260.00;;;34.50
19040;BMP180;9652;49.014;12.052;2023-07-09T12:13:22;98314.00;;;34.50
19040;BMP180;9652;49.014;12.052;2023-07-09T12:15:49;98238.00;;;34.60
19040;BMP180;9652;49.014;12.052;2023-07-09T12:18:17;98294.00;;;34.60
19040;BMP180;9652;49.014;12.052;2023-07-09T12:20:52;98236.00;;;34.70
19040;BMP180;9652;49.014;12.052;2023-07-09T12:23:25;98306.00;;;34.80
19040;BMP180;9652;49.014;12.052;2023-07-09T12:25:59;98319.00;;;34.90
19040;BMP180;9652;49.014;12.052;2023-07-09T12:28:29;98195.00;;;35.00
19040;BMP180;9652;49.014;12.052;2023-07-09T12:30:56;98235.00;;;35.00
19040;BMP180;9652;49.014;12.052;2023-07-09T12:33:26;98284.00;;;35.10
19040;BMP180;9652;49.014;12.052;2023-07-09T12:35:57;98259.00;;;35.20
19040;BMP180;9652;49.014;12.052;2023-07-09T12:38:29;98227.00;;;35.30
19040;BMP180;9652;49.014;12.052;2023-07-09T12:41:00;98280.00;;;35.30
19040;BMP180;9652;49.014;12.052;2023-07-09T12:43:31;98204.00;;;35.30
19040;BMP180;9652;49.014;12.052;2023-07-09T12:45:59;98193.00;;;35.50
19040;BMP180;9652;49.014;12.052;2023-07-09T12:48:29;98259.00;;;35.60
19040;BMP180;9652;49.014;12.052;2023-07-09T12:50:59;98225.00;;;35.70
19040;BMP180;9652;49.014;12.052;2023-07-09T12:53:29;98162.00;;;35.70
19040;BMP180;9652;49.014;12.052;2023-07-09T12:55:59;98171.00;;;35.80
19040;BMP180;9652;49.014;12.052;2023-07-09T12:58:31;98268.00;;;35.80
19040;BMP180;9652;49.014;12.052;2023-07-09T13:01:05;98283.00;;;35.80
19040;BMP180;9652;49.014;12.052;2023-07-09T13:03:34;98212.00;;;35.90
19040;BMP180;9652;49.014;12.052;2023-07-09T13:06:04;98254.00;;;36.00
19040;BMP180;9652;49.014;12.052;2023-07-09T13:08:40;98221.00;;;36.10
19040;BMP180;9652;49.014;12.052;2023-07-09T13:11:17;98176.00;;;36.20
19040;BMP180;9652;49.014;12.052;2023-07-09T13:13:59;98173.00;;;36.40
19040;BMP180;9652;49.014;12.052;2023-07-09T13:16:26;98249.00;;;36.50
19040;BMP180;9652;49.014;12.052;2023-07-09T13:18:54;98255.00;;;36.50
19040;BMP180;9652;49.014;12.052;2023-07-09T13:21:22;98258.00;;;36.90
19040;BMP180;9652;49.014;12.052;2023-07-09T13:23:52;98248.00;;;37.20
19040;BMP180;9652;49.014;12.052;2023-07-09T13:26:21;98249.00;;;37.50
19040;BMP180;9652;49.014;12.052;2023-07-09T13:28:48;98255.00;;;37.90
19040;BMP180;9652;49.014;12.052;2023-07-09T13:31:20;98250.00;;;38.20
19040;BMP180;9652;49.014;12.052;2023-07-09T13:33:54;98222.00;;;38.50
19040;BMP180;9652;49.014;12.052;2023-07-09T13:36:21;98170.00;;;38.70
19040;BMP180;9652;49.014;12.052;2023-07-09T13:38:49;98248.00;;;38.90
19040;BMP180;9652;49.014;12.052;2023-07-09T13:41:18;98255.00;;;39.00
19040;BMP180;9652;49.014;12.052;2023-07-09T13:43:49;98194.00;;;39.20
19040;BMP180;9652;49.014;12.052;2023-07-09T13:46:17;98248.00;;;39.30
19040;BMP180;9652;49.014;12.052;2023-07-09T13:48:45;98255.00;;;39.50
19040;BMP180;9652;49.014;12.052;2023-07-09T13:51:18;98245.00;;;39.70
19040;BMP180;9652;49.014;12.052;2023-07-09T13:53:48;98250.00;;;40.00
19040;BMP180;9652;49.014;12.052;2023-07-09T13:56:16;98243.00;;;40.30
19040;BMP180;9652;49.014;12.052;2023-07-09T13:58:43;98244.00;;;40.60
19040;BMP180;9652;49.014;12.052;2023-07-09T14:01:15;98246.00;;;40.90
19040;BMP180;9652;49.014;12.052;2023-07-09T14:03:43;98233.00;;;41.20
19040;BMP180;9652;49.014;12.052;2023-07-09T14:06:12;98240.00;;;41.30
19040;BMP180;9652;49.014;12.052;2023-07-09T14:08:40;98245.00;;;41.50
19040;BMP180;9652;49.014;12.052;2023-07-09T14:11:10;98230.00;;;41.60
19040;BMP180;9652;49.014;12.052;2023-07-09T14:13:38;98237.00;;;41.70
19040;BMP180;9652;49.014;12.052;2023-07-09T14:16:09;98235.00;;;41.90
19040;BMP180;9652;49.014;12.052;2023-07-09T14:18:39;98222.00;;;42.10
19040;BMP180;9652;49.014;12.052;2023-07-09T14:21:12;98201.00;;;42.30
19040;BMP180;9652;49.014;12.052;2023-07-09T14:23:40;98232.00;;;42.60
19040;BMP180;9652;49.014;12.052;2023-07-09T14:26:08;98243.00;;;42.80
19040;BMP180;9652;49.014;12.052;2023-07-09T14:28:36;98232.00;;;42.90
19040;BMP180;9652;49.014;12.052;2023-07-09T14:31:13;98210.00;;;43.10